sensor_id;sensor_type;location;lat;lon;timestamp;pressure;altitude;pressure_sealevel;temperature;humidity
74615;BME280;63121;51.458;-0.110;2023-04-01T00:01:53;99687.63;;;13.56;73.00
74615;BME280;63121;51.458;-0.110;2023-04-01T00:04:19;99683.66;;;13.90;72.44
74615;BME280;63121;51.458;-0.110;2023-04-01T00:06:46;99690.13;;;13.14;73.45
74615;BME280;63121;51.458;-0.110;2023-04-01T00:09:13;99695.44;;;13.55;73.31
74615;BME280;63121;51.458;-0.110;2023-04-01T00:11:38;99698.59;;;13.41;72.56
74615;BME280;63121;51.458;-0.110;2023-04-01T00:14:04;99694.50;;;13.12;73.71
74615;BME280;63121;51.458;-0.110;2023-04-01T00:16:29;99694.13;;;13.45;72.96
74615;BME280;63121;51.458;-0.110;2023-04-01T00:18:55;99706.13;;;13.69;72.15
74615;BME280;63121;51.458;-0.110;2023-04-01T00:21:21;99702.28;;;13.12;73.63
74615;BME280;63121;51.458;-0.110;2023-04-01T00:23:48;99710.53;;;13.21;73.24
74615;BME280;63121;51.458;-0.110;2023-04-01T00:26:14;99718.84;;;13.31;72.72
74615;BME280;63121;51.458;-0.110;2023-04-01T00:28:41;99717.22;;;13.29;72.86
74615;BME280;63121;51.458;-0.110;2023-04-01T00:31:07;99719.81;;;13.73;72.37
74615;BME280;63121;51.458;-0.110;2023-04-01T00:33:33;99717.13;;;13.54;71.82
74615;BME280;63121;51.458;-0.110;2023-04-01T00:36:16;99723.41;;;13.01;73.32
74615;BME280;63121;51.458;-0.110;2023-04-01T00:38:42;99725.81;;;13.51;71.76
74615;BME280;63121;51.458;-0.110;2023-04-01T00:41:09;99726.94;;;13.22;71.58
74615;BME280;63121;51.458;-0.110;2023-04-01T00:43:40;99731.75;;;13.09;72.58
74615;BME280;63121;51.458;-0.110;2023-04-01T00:46:06;99733.81;;;13.23;72.18
74615;BME280;63121;51.458;-0.110;2023-04-01T00:48:34;99736.91;;;12.86;73.24
74615;BME280;63121;51.458;-0.110;2023-04-01T00:51:05;99734.03;;;12.93;72.53
74615;BME280;63121;51.458;-0.110;2023-04-01T00:53:33;99733.41;;;12.63;73.31
74615;BME280;63121;51.458;-0.110;2023-04-01T00:56:07;99742.16;;;12.84;73.12
74615;BME280;63121;51.458;-0.110;2023-04-01T00:58:38;99746.56;;;12.82;73.07
74615;BME280;63121;51.458;-0.110;2023-04-01T01:01:05;99749.97;;;13.06;71.79
74615;BME280;63121;51.458;-0.110;2023-04-01T01:03:31;99752.31;;;13.14;72.09
74615;BME280;63121;51.458;-0.110;2023-04-01T01:09:06;99757.25;;;13.44;71.73
74615;BME280;63121;51.458;-0.110;2023-04-01T01:11:55;99761.22;;;13.30;71.49
74615;BME280;63121;51.458;-0.110;2023-04-01T01:17:15;99763.66;;;13.57;71.13
74615;BME280;63121;51.458;-0.110;2023-04-01T01:22:45;99772.72;;;13.21;71.58
74615;BME280;63121;51.458;-0.110;2023-04-01T01:25:46;99775.72;;;12.87;72.38
74615;BME280;63121;51.458;-0.110;2023-04-01T01:36:53;99795.75;;;12.82;71.54
74615;BME280;63121;51.458;-0.110;2023-04-01T01:39:23;99800.47;;;12.94;70.96
74615;BME280;63121;51.458;-0.110;2023-04-01T01:41:53;99802.88;;;12.75;71.39
74615;BME280;63121;51.458;-0.110;2023-04-01T01:44:21;99806.31;;;12.51;72.28
74615;BME280;63121;51.458;-0.110;2023-04-01T01:46:47;99813.50;;;12.68;71.81
74615;BME280;63121;51.458;-0.110;2023-04-01T01:49:14;99808.38;;;12.91;71.25
74615;BME280;63121;51.458;-0.110;2023-04-01T01:51:42;99818.38;;;12.77;71.08
74615;BME280;63121;51.458;-0.110;2023-04-01T01:54:12;99821.97;;;12.21;73.45
74615;BME280;63121;51.458;-0.110;2023-04-01T01:56:38;99826.44;;;13.18;70.60
74615;BME280;63121;51.458;-0.110;2023-04-01T01:59:08;99830.81;;;12.40;72.37
74615;BME280;63121;51.458;-0.110;2023-04-01T02:01:38;99834.19;;;12.69;71.78
74615;BME280;63121;51.458;-0.110;2023-04-01T02:04:06;99837.66;;;12.68;72.04
74615;BME280;63121;51.458;-0.110;2023-04-01T02:06:37;99843.00;;;12.89;71.34
74615;BME280;63121;51.458;-0.110;2023-04-01T02:09:07;99837.91;;;12.86;70.51
74615;BME280;63121;51.458;-0.110;2023-04-01T02:11:51;99843.84;;;12.64;71.81
74615;BME280;63121;51.458;-0.110;2023-04-01T02:14:23;99846.22;;;12.70;72.23
74615;BME280;63121;51.458;-0.110;2023-04-01T02:19:17;99851.25;;;13.00;70.79
74615;BME280;63121;51.458;-0.110;2023-04-01T02:21:50;99854.41;;;12.83;71.75
74615;BME280;63121;51.458;-0.110;2023-04-01T02:24:18;99856.63;;;13.19;70.54
74615;BME280;63121;51.458;-0.110;2023-04-01T02:26:48;99865.72;;;12.80;71.57
74615;BME280;63121;51.458;-0.110;2023-04-01T02:29:16;99861.50;;;13.03;70.91
74615;BME280;63121;51.458;-0.110;2023-04-01T02:31:43;99867.19;;;12.88;69.81
74615;BME280;63121;51.458;-0.110;2023-04-01T02:34:08;99869.44;;;12.73;70.38
74615;BME280;63121;51.458;-0.110;2023-04-01T02:36:35;99867.81;;;12.94;71.18
74615;BME280;63121;51.458;-0.110;2023-04-01T02:39:01;99860.50;;;12.82;70.44
74615;BME280;63121;51.458;-0.110;2023-04-01T02:41:29;99875.88;;;12.87;70.27
74615;BME280;63121;51.458;-0.110;2023-04-01T02:43:55;99868.56;;;12.19;71.85
74615;BME280;63121;51.458;-0.110;2023-04-01T02:46:22;99877.13;;;12.22;71.40
74615;BME280;63121;51.458;-0.110;2023-04-01T02:48:47;99876.72;;;12.07;71.41
74615;BME280;63121;51.458;-0.110;2023-04-01T02:51:13;99879.69;;;12.50;70.72
74615;BME280;63121;51.458;-0.110;2023-04-01T02:53:38;99882.72;;;12.63;70.07
74615;BME280;63121;51.458;-0.110;2023-04-01T02:56:04;99890.63;;;12.58;70.67
74615;BME280;63121;51.458;-0.110;2023-04-01T02:58:29;99888.25;;;12.25;71.38
74615;BME280;63121;51.458;-0.110;2023-04-01T03:00:55;99896.28;;;12.44;71.24
74615;BME280;63121;51.458;-0.110;2023-04-01T03:03:20;99895.78;;;12.05;70.76
74615;BME280;63121;51.458;-0.110;2023-04-01T03:05:45;99897.66;;;12.28;71.99
74615;BME280;63121;51.458;-0.110;2023-04-01T03:08:11;99890.56;;;12.33;70.93
74615;BME280;63121;51.458;-0.110;2023-04-01T03:10:37;99907.09;;;12.57;70.18
74615;BME280;63121;51.458;-0.110;2023-04-01T03:13:02;99900.59;;;12.44;71.00
74615;BME280;63121;51.458;-0.110;2023-04-01T03:15:28;99901.69;;;12.36;71.12
74615;BME280;63121;51.458;-0.110;2023-04-01T03:17:53;99902.31;;;12.16;71.19
74615;BME280;63121;51.458;-0.110;2023-04-01T03:20:18;99906.72;;;11.83;71.60
74615;BME280;63121;51.458;-0.110;2023-04-01T03:22:45;99910.25;;;12.10;71.26
74615;BME280;63121;51.458;-0.110;2023-04-01T03:25:11;99909.94;;;12.48;70.61
74615;BME280;63121;51.458;-0.110;2023-04-01T03:27:36;99920.31;;;12.48;70.67
74615;BME280;63121;51.458;-0.110;2023-04-01T03:30:04;99917.34;;;12.04;71.37
74615;BME280;63121;51.458;-0.110;2023-04-01T03:32:29;99914.97;;;11.66;72.24
74615;BME280;63121;51.458;-0.110;2023-04-01T03:34:55;99921.06;;;11.95;72.02
74615;BME280;63121;51.458;-0.110;2023-04-01T03:37:22;99918.34;;;11.99;71.31
74615;BME280;63121;51.458;-0.110;2023-04-01T03:39:47;99922.63;;;12.29;70.92
74615;BME280;63121;51.458;-0.110;2023-04-01T03:42:12;99925.00;;;12.08;70.99
74615;BME280;63121;51.458;-0.110;2023-04-01T03:44:38;99922.94;;;12.18;70.99
74615;BME280;63121;51.458;-0.110;2023-04-01T03:47:03;99927.94;;;11.96;71.50
74615;BME280;63121;51.458;-0.110;2023-04-01T03:49:29;99926.03;;;11.70;72.64
74615;BME280;63121;51.458;-0.110;2023-04-01T03:51:54;99934.41;;;11.79;72.34
74615;BME280;63121;51.458;-0.110;2023-04-01T03:54:20;99936.50;;;11.67;72.52
74615;BME280;63121;51.458;-0.110;2023-04-01T03:56:46;99940.56;;;11.75;72.28
74615;BME280;63121;51.458;-0.110;2023-04-01T03:59:12;99953.88;;;11.62;72.77
74615;BME280;63121;51.458;-0.110;2023-04-01T04:01:37;99949.06;;;12.10;71.17
74615;BME280;63121;51.458;-0.110;2023-04-01T04:04:03;99958.00;;;11.36;73.00
74615;BME280;63121;51.458;-0.110;2023-04-01T04:06:29;99957.84;;;12.33;70.75
74615;BME280;63121;51.458;-0.110;2023-04-01T04:08:54;99954.94;;;11.84;71.85
74615;BME280;63121;51.458;-0.110;2023-04-01T04:11:20;99967.41;;;11.70;72.57
74615;BME280;63121;51.458;-0.110;2023-04-01T04:13:46;99961.59;;;11.94;71.90
74615;BME280;63121;51.458;-0.110;2023-04-01T04:16:16;99968.06;;;12.37;70.82
74615;BME280;63121;51.458;-0.110;2023-04-01T04:18:42;99968.78;;;12.43;69.85
74615;BME280;63121;51.458;-0.110;2023-04-01T04:21:12;99975.19;;;12.59;70.14
74615;BME280;63121;51.458;-0.110;2023-04-01T04:23:37;99976.97;;;12.84;69.14
74615;BME280;63121;51.458;-0.110;2023-04-01T04:26:08;99983.81;;;12.59;69.09
74615;BME280;63121;51.458;-0.110;2023-04-01T04:28:34;99982.59;;;12.41;69.52
74615;BME280;63121;51.458;-0.110;2023-04-01T04:31:00;99986.28;;;12.34;69.74
74615;BME280;63121;51.458;-0.110;2023-04-01T04:33:26;99983.47;;;12.70;68.58
74615;BME280;63121;51.458;-0.110;2023-04-01T04:35:55;99987.88;;;12.67;69.00
74615;BME280;63121;51.458;-0.110;2023-04-01T04:38:21;99990.53;;;12.07;71.14
74615;BME280;63121;51.458;-0.110;2023-04-01T04:40:46;99993.03;;;11.79;71.70
74615;BME280;63121;51.458;-0.110;2023-04-01T04:43:13;99991.69;;;11.97;71.23
74615;BME280;63121;51.458;-0.110;2023-04-01T04:45:39;99995.19;;;11.96;70.79
74615;BME280;63121;51.458;-0.110;2023-04-01T04:48:07;99994.56;;;12.17;70.40
74615;BME280;63121;51.458;-0.110;2023-04-01T04:50:33;99997.97;;;12.18;70.08
74615;BME280;63121;51.458;-0.110;2023-04-01T04:52:58;100006.78;;;11.81;70.39
74615;BME280;63121;51.458;-0.110;2023-04-01T04:55:23;100000.91;;;12.06;70.20
74615;BME280;63121;51.458;-0.110;2023-04-01T04:57:49;100001.81;;;12.05;70.13
74615;BME280;63121;51.458;-0.110;2023-04-01T05:00:14;100011.69;;;12.22;69.47
74615;BME280;63121;51.458;-0.110;2023-04-01T05:02:40;100014.72;;;12.06;70.03
74615;BME280;63121;51.458;-0.110;2023-04-01T05:05:05;100015.22;;;11.86;70.12
74615;BME280;63121;51.458;-0.110;2023-04-01T05:07:31;100019.28;;;11.64;70.04
74615;BME280;63121;51.458;-0.110;2023-04-01T05:09:57;100028.28;;;11.49;70.52
74615;BME280;63121;51.458;-0.110;2023-04-01T05:12:23;100034.22;;;11.54;70.38
74615;BME280;63121;51.458;-0.110;2023-04-01T05:14:48;100034.19;;;11.88;70.21
74615;BME280;63121;51.458;-0.110;2023-04-01T05:17:13;100040.31;;;12.45;68.47
74615;BME280;63121;51.458;-0.110;2023-04-01T05:19:39;100041.78;;;12.24;68.83
74615;BME280;63121;51.458;-0.110;2023-04-01T05:22:05;100038.25;;;11.64;69.71
74615;BME280;63121;51.458;-0.110;2023-04-01T05:24:31;100038.75;;;11.78;70.16
74615;BME280;63121;51.458;-0.110;2023-04-01T05:26:57;100034.72;;;11.67;69.97
74615;BME280;63121;51.458;-0.110;2023-04-01T05:29:24;100054.19;;;11.47;71.01
74615;BME280;63121;51.458;-0.110;2023-04-01T05:31:49;100050.38;;;11.62;69.65
74615;BME280;63121;51.458;-0.110;2023-04-01T05:34:15;100056.28;;;11.66;69.15
74615;BME280;63121;51.458;-0.110;2023-04-01T05:36:42;100059.88;;;11.62;69.46
74615;BME280;63121;51.458;-0.110;2023-04-01T05:39:08;100060.25;;;12.12;68.11
74615;BME280;63121;51.458;-0.110;2023-04-01T05:41:38;100058.31;;;11.87;69.45
74615;BME280;63121;51.458;-0.110;2023-04-01T05:44:04;100065.94;;;11.59;69.10
74615;BME280;63121;51.458;-0.110;2023-04-01T05:46:30;100056.19;;;12.03;67.74
74615;BME280;63121;51.458;-0.110;2023-04-01T05:48:55;100059.28;;;11.50;69.43
74615;BME280;63121;51.458;-0.110;2023-04-01T05:51:21;100063.44;;;11.90;68.41
74615;BME280;63121;51.458;-0.110;2023-04-01T05:53:46;100069.78;;;12.10;67.54
74615;BME280;63121;51.458;-0.110;2023-04-01T05:56:12;100073.41;;;11.70;68.75
74615;BME280;63121;51.458;-0.110;2023-04-01T05:58:37;100071.34;;;12.17;67.90
74615;BME280;63121;51.458;-0.110;2023-04-01T06:01:08;100083.19;;;12.24;68.63
74615;BME280;63121;51.458;-0.110;2023-04-01T06:03:34;100088.38;;;12.24;68.11
74615;BME280;63121;51.458;-0.110;2023-04-01T06:05:59;100095.00;;;12.34;67.99
74615;BME280;63121;51.458;-0.110;2023-04-01T06:08:27;100091.41;;;12.09;68.11
74615;BME280;63121;51.458;-0.110;2023-04-01T06:11:19;100093.13;;;11.74;69.57
74615;BME280;63121;51.458;-0.110;2023-04-01T06:24:51;100106.97;;;11.73;69.55
74615;BME280;63121;51.458;-0.110;2023-04-01T06:30:06;100116.94;;;11.52;70.58
74615;BME280;63121;51.458;-0.110;2023-04-01T06:33:07;100123.84;;;11.86;69.23
74615;BME280;63121;51.458;-0.110;2023-04-01T06:46:45;100137.50;;;12.57;67.06
74615;BME280;63121;51.458;-0.110;2023-04-01T06:52:22;100136.31;;;12.97;65.88
74615;BME280;63121;51.458;-0.110;2023-04-01T06:57:46;100147.44;;;12.41;67.33
74615;BME280;63121;51.458;-0.110;2023-04-01T07:00:31;100150.00;;;12.10;66.82
74615;BME280;63121;51.458;-0.110;2023-04-01T07:05:42;100146.25;;;12.53;66.34
74615;BME280;63121;51.458;-0.110;2023-04-01T07:08:14;100156.00;;;12.43;66.32
74615;BME280;63121;51.458;-0.110;2023-04-01T07:10:50;100160.88;;;12.84;66.12
74615;BME280;63121;51.458;-0.110;2023-04-01T07:13:22;100174.28;;;12.68;66.25
74615;BME280;63121;51.458;-0.110;2023-04-01T07:16:05;100176.28;;;12.58;66.88
74615;BME280;63121;51.458;-0.110;2023-04-01T07:21:19;100176.97;;;12.34;67.14
74615;BME280;63121;51.458;-0.110;2023-04-01T07:23:47;100195.94;;;12.34;66.69
74615;BME280;63121;51.458;-0.110;2023-04-01T07:26:24;100195.38;;;12.23;67.03
74615;BME280;63121;51.458;-0.110;2023-04-01T07:28:51;100198.97;;;11.82;67.73
74615;BME280;63121;51.458;-0.110;2023-04-01T07:53:50;100232.41;;;12.25;67.49
74615;BME280;63121;51.458;-0.110;2023-04-01T08:09:29;100240.00;;;12.64;67.81
74615;BME280;63121;51.458;-0.110;2023-04-01T08:12:11;100250.09;;;12.42;67.83
74615;BME280;63121;51.458;-0.110;2023-04-01T08:23:44;100262.88;;;12.14;68.04
74615;BME280;63121;51.458;-0.110;2023-04-01T08:26:32;100267.72;;;12.28;67.19
74615;BME280;63121;51.458;-0.110;2023-04-01T08:29:06;100272.56;;;12.40;66.97
74615;BME280;63121;51.458;-0.110;2023-04-01T08:34:04;100278.16;;;13.20;65.45
74615;BME280;63121;51.458;-0.110;2023-04-01T08:36:38;100276.44;;;13.19;64.18
74615;BME280;63121;51.458;-0.110;2023-04-01T08:52:36;100299.88;;;12.85;66.14
74615;BME280;63121;51.458;-0.110;2023-04-01T09:01:10;100306.09;;;13.09;65.06
74615;BME280;63121;51.458;-0.110;2023-04-01T09:03:44;100315.66;;;13.07;64.16
74615;BME280;63121;51.458;-0.110;2023-04-01T09:06:38;100317.41;;;13.06;63.52
74615;BME280;63121;51.458;-0.110;2023-04-01T09:23:26;100333.88;;;13.94;62.78
74615;BME280;63121;51.458;-0.110;2023-04-01T09:28:38;100342.81;;;13.25;63.79
74615;BME280;63121;51.458;-0.110;2023-04-01T09:39:36;100354.72;;;12.68;64.72
74615;BME280;63121;51.458;-0.110;2023-04-01T09:42:29;100352.44;;;13.19;63.42
74615;BME280;63121;51.458;-0.110;2023-04-01T09:45:09;100362.75;;;12.90;64.79
74615;BME280;63121;51.458;-0.110;2023-04-01T09:50:44;100354.78;;;14.71;59.00
74615;BME280;63121;51.458;-0.110;2023-04-01T10:18:46;100402.09;;;12.71;65.29
74615;BME280;63121;51.458;-0.110;2023-04-01T10:33:53;100417.38;;;13.79;61.87
74615;BME280;63121;51.458;-0.110;2023-04-01T10:55:36;100450.06;;;13.20;63.97
74615;BME280;63121;51.458;-0.110;2023-04-01T11:20:28;100487.69;;;13.37;62.80
74615;BME280;63121;51.458;-0.110;2023-04-01T11:23:28;100486.19;;;13.27;62.75
74615;BME280;63121;51.458;-0.110;2023-04-01T11:28:51;100491.69;;;15.22;57.23
74615;BME280;63121;51.458;-0.110;2023-04-01T11:31:25;100490.88;;;14.94;58.49
74615;BME280;63121;51.458;-0.110;2023-04-01T11:39:24;100504.25;;;14.25;60.15
74615;BME280;63121;51.458;-0.110;2023-04-01T11:44:23;100507.38;;;14.66;58.02
74615;BME280;63121;51.458;-0.110;2023-04-01T11:52:17;100514.84;;;14.47;58.93
74615;BME280;63121;51.458;-0.110;2023-04-01T12:05:44;100536.03;;;15.18;55.40
74615;BME280;63121;51.458;-0.110;2023-04-01T12:11:17;100538.88;;;15.37;55.07
74615;BME280;63121;51.458;-0.110;2023-04-01T12:16:36;100544.72;;;15.43;55.24
74615;BME280;63121;51.458;-0.110;2023-04-01T12:29:44;100564.16;;;14.19;58.49
74615;BME280;63121;51.458;-0.110;2023-04-01T12:32:20;100571.84;;;14.81;57.06
74615;BME280;63121;51.458;-0.110;2023-04-01T13:05:41;100619.38;;;15.13;55.11
74615;BME280;63121;51.458;-0.110;2023-04-01T13:11:08;100623.44;;;14.94;54.94
74615;BME280;63121;51.458;-0.110;2023-04-01T13:16:27;100624.91;;;15.31;53.99
74615;BME280;63121;51.458;-0.110;2023-04-01T13:19:09;100631.38;;;15.17;52.63
74615;BME280;63121;51.458;-0.110;2023-04-01T13:22:03;100639.63;;;15.03;52.88
74615;BME280;63121;51.458;-0.110;2023-04-01T13:24:46;100626.91;;;15.76;51.26
74615;BME280;63121;51.458;-0.110;2023-04-01T13:43:52;100655.50;;;15.49;51.23
74615;BME280;63121;51.458;-0.110;2023-04-01T14:02:49;100672.59;;;17.27;48.37
74615;BME280;63121;51.458;-0.110;2023-04-01T14:08:51;100694.41;;;15.25;52.69
74615;BME280;63121;51.458;-0.110;2023-04-01T14:11:49;100687.81;;;15.42;53.07
74615;BME280;63121;51.458;-0.110;2023-04-01T14:19:57;100711.75;;;15.25;52.01
74615;BME280;63121;51.458;-0.110;2023-04-01T14:33:05;100716.22;;;15.20;53.67
74615;BME280;63121;51.458;-0.110;2023-04-01T14:35:38;100720.31;;;15.29;52.23
74615;BME280;63121;51.458;-0.110;2023-04-01T14:38:27;100724.38;;;15.37;52.68
74615;BME280;63121;51.458;-0.110;2023-04-01T14:48:51;100753.78;;;14.47;55.05
74615;BME280;63121;51.458;-0.110;2023-04-01T14:51:36;100756.59;;;14.72;54.57
74615;BME280;63121;51.458;-0.110;2023-04-01T14:54:46;100758.44;;;15.00;53.64
74615;BME280;63121;51.458;-0.110;2023-04-01T14:57:31;100767.13;;;14.99;53.56
74615;BME280;63121;51.458;-0.110;2023-04-01T15:02:56;100773.97;;;14.01;55.82
74615;BME280;63121;51.458;-0.110;2023-04-01T15:10:49;100788.00;;;13.94;56.49
74615;BME280;63121;51.458;-0.110;2023-04-01T15:24:04;100806.34;;;14.58;53.19
74615;BME280;63121;51.458;-0.110;2023-04-01T15:35:08;100822.31;;;14.07;55.55
74615;BME280;63121;51.458;-0.110;2023-04-01T15:40:30;100829.38;;;14.00;55.95
74615;BME280;63121;51.458;-0.110;2023-04-01T15:45:36;100835.94;;;13.39;58.33
74615;BME280;63121;51.458;-0.110;2023-04-01T15:56:13;100850.31;;;13.10;58.36
74615;BME280;63121;51.458;-0.110;2023-04-01T16:03:55;100866.22;;;13.37;58.01
74615;BME280;63121;51.458;-0.110;2023-04-01T16:09:42;100875.84;;;14.11;56.44
74615;BME280;63121;51.458;-0.110;2023-04-01T16:12:18;100881.94;;;12.79;59.57
74615;BME280;63121;51.458;-0.110;2023-04-01T16:17:29;100885.22;;;13.37;58.27
74615;BME280;63121;51.458;-0.110;2023-04-01T16:20:06;100893.78;;;12.94;59.12
74615;BME280;63121;51.458;-0.110;2023-04-01T16:22:44;100894.63;;;13.43;58.21
74615;BME280;63121;51.458;-0.110;2023-04-01T16:25:31;100902.94;;;12.64;59.77
74615;BME280;63121;51.458;-0.110;2023-04-01T16:38:52;100927.16;;;12.63;60.07
74615;BME280;63121;51.458;-0.110;2023-04-01T16:41:31;100932.78;;;12.32;59.67
74615;BME280;63121;51.458;-0.110;2023-04-01T16:44:21;100940.59;;;12.29;59.43
74615;BME280;63121;51.458;-0.110;2023-04-01T16:46:54;100944.72;;;12.44;59.49
74615;BME280;63121;51.458;-0.110;2023-04-01T16:51:53;100943.38;;;13.22;57.27
74615;BME280;63121;51.458;-0.110;2023-04-01T16:57:28;100952.13;;;13.17;57.74
74615;BME280;63121;51.458;-0.110;2023-04-01T17:00:16;100959.06;;;12.65;59.09
74615;BME280;63121;51.458;-0.110;2023-04-01T17:02:49;100969.59;;;13.07;58.65
74615;BME280;63121;51.458;-0.110;2023-04-01T17:05:16;100963.72;;;12.94;59.37
74615;BME280;63121;51.458;-0.110;2023-04-01T17:07:48;100965.34;;;13.01;58.53
74615;BME280;63121;51.458;-0.110;2023-04-01T17:18:13;100995.47;;;12.54;57.61
74615;BME280;63121;51.458;-0.110;2023-04-01T17:20:50;100994.00;;;12.36;58.06
74615;BME280;63121;51.458;-0.110;2023-04-01T17:28:53;101001.44;;;12.58;57.74
74615;BME280;63121;51.458;-0.110;2023-04-01T17:34:17;101008.09;;;12.76;57.57
74615;BME280;63121;51.458;-0.110;2023-04-01T17:42:21;101029.69;;;12.75;57.32
74615;BME280;63121;51.458;-0.110;2023-04-01T17:56:17;101042.28;;;12.98;56.43
74615;BME280;63121;51.458;-0.110;2023-04-01T18:01:21;101054.81;;;12.68;56.90
74615;BME280;63121;51.458;-0.110;2023-04-01T18:12:00;101064.13;;;12.81;56.34
74615;BME280;63121;51.458;-0.110;2023-04-01T18:14:54;101083.25;;;12.73;57.19
74615;BME280;63121;51.458;-0.110;2023-04-01T18:25:54;101104.34;;;13.07;56.88
74615;BME280;63121;51.458;-0.110;2023-04-01T18:28:43;101103.47;;;13.08;56.48
74615;BME280;63121;51.458;-0.110;2023-04-01T18:31:18;101110.59;;;12.94;57.46
74615;BME280;63121;51.458;-0.110;2023-04-01T18:44:34;101132.88;;;12.42;58.79
74615;BME280;63121;51.458;-0.110;2023-04-01T18:47:23;101149.81;;;12.69;57.54
74615;BME280;63121;51.458;-0.110;2023-04-01T18:52:34;101156.97;;;12.46;58.43
74615;BME280;63121;51.458;-0.110;2023-04-01T18:57:46;101166.53;;;12.42;59.30
74615;BME280;63121;51.458;-0.110;2023-04-01T19:00:36;101173.56;;;12.29;60.39
74615;BME280;63121;51.458;-0.110;2023-04-01T19:03:16;101182.78;;;12.53;60.45
74615;BME280;63121;51.458;-0.110;2023-04-01T19:05:46;101183.34;;;12.78;59.60
74615;BME280;63121;51.458;-0.110;2023-04-01T19:08:19;101185.94;;;12.77;59.72
74615;BME280;63121;51.458;-0.110;2023-04-01T19:10:51;101191.59;;;12.38;61.66
74615;BME280;63121;51.458;-0.110;2023-04-01T19:13:56;101193.31;;;12.38;61.90
74615;BME280;63121;51.458;-0.110;2023-04-01T19:19:08;101209.47;;;12.58;62.34
74615;BME280;63121;51.458;-0.110;2023-04-01T19:21:42;101208.22;;;12.92;60.83
74615;BME280;63121;51.458;-0.110;2023-04-01T19:24:43;101210.91;;;12.04;63.43
74615;BME280;63121;51.458;-0.110;2023-04-01T19:27:35;101214.66;;;11.64;64.66
74615;BME280;63121;51.458;-0.110;2023-04-01T19:35:26;101232.59;;;11.93;65.41
74615;BME280;63121;51.458;-0.110;2023-04-01T19:38:01;101240.72;;;12.45;63.88
74615;BME280;63121;51.458;-0.110;2023-04-01T19:51:09;101266.38;;;11.63;66.38
74615;BME280;63121;51.458;-0.110;2023-04-01T19:56:21;101283.69;;;11.54;67.61
74615;BME280;63121;51.458;-0.110;2023-04-01T20:01:48;101287.94;;;11.65;67.29
74615;BME280;63121;51.458;-0.110;2023-04-01T20:04:22;101286.16;;;11.70;68.21
74615;BME280;63121;51.458;-0.110;2023-04-01T20:25:26;101332.47;;;12.10;65.24
74615;BME280;63121;51.458;-0.110;2023-04-01T20:28:04;101331.13;;;11.46;65.46
74615;BME280;63121;51.458;-0.110;2023-04-01T20:35:52;101350.84;;;11.67;64.77
74615;BME280;63121;51.458;-0.110;2023-04-01T20:44:12;101373.41;;;11.38;64.36
74615;BME280;63121;51.458;-0.110;2023-04-01T20:57:27;101386.38;;;11.22;65.08
74615;BME280;63121;51.458;-0.110;2023-04-01T21:00:31;101396.59;;;11.45;63.68
74615;BME280;63121;51.458;-0.110;2023-04-01T21:13:36;101402.63;;;11.56;63.19
74615;BME280;63121;51.458;-0.110;2023-04-01T21:21:21;101414.69;;;11.55;63.16
74615;BME280;63121;51.458;-0.110;2023-04-01T21:35:03;101434.66;;;10.73;64.21
74615;BME280;63121;51.458;-0.110;2023-04-01T21:37:49;101441.56;;;10.77;64.70
74615;BME280;63121;51.458;-0.110;2023-04-01T21:43:40;101451.75;;;11.54;62.02
74615;BME280;63121;51.458;-0.110;2023-04-01T21:54:49;101478.53;;;10.58;64.29
74615;BME280;63121;51.458;-0.110;2023-04-01T22:00:13;101488.03;;;11.11;63.48
74615;BME280;63121;51.458;-0.110;2023-04-01T22:10:42;101489.75;;;10.98;63.06
74615;BME280;63121;51.458;-0.110;2023-04-01T22:13:21;101500.94;;;11.24;63.26
74615;BME280;63121;51.458;-0.110;2023-04-01T22:18:42;101513.88;;;10.94;63.81
74615;BME280;63121;51.458;-0.110;2023-04-01T22:21:18;101507.78;;;11.54;62.50
74615;BME280;63121;51.458;-0.110;2023-04-01T22:24:13;101526.75;;;10.90;63.97
74615;BME280;63121;51.458;-0.110;2023-04-01T22:27:01;101521.63;;;10.93;64.20
74615;BME280;63121;51.458;-0.110;2023-04-01T22:32:28;101527.63;;;10.99;63.65
74615;BME280;63121;51.458;-0.110;2023-04-01T22:37:44;101528.47;;;10.66;64.57
74615;BME280;63121;51.458;-0.110;2023-04-01T22:40:35;101536.25;;;10.91;63.59
74615;BME280;63121;51.458;-0.110;2023-04-01T22:43:27;101540.56;;;11.13;63.41
74615;BME280;63121;51.458;-0.110;2023-04-01T22:46:19;101548.28;;;11.09;63.53
74615;BME280;63121;51.458;-0.110;2023-04-01T22:49:03;101543.94;;;11.65;62.22
74615;BME280;63121;51.458;-0.110;2023-04-01T22:51:45;101562.09;;;10.97;64.13
74615;BME280;63121;51.458;-0.110;2023-04-01T22:54:21;101562.91;;;10.81;64.80
74615;BME280;63121;51.458;-0.110;2023-04-01T22:56:53;101560.28;;;10.53;65.34
74615;BME280;63121;51.458;-0.110;2023-04-01T22:59:37;101568.09;;;10.82;64.88
74615;BME280;63121;51.458;-0.110;2023-04-01T23:02:16;101562.09;;;11.20;64.18
74615;BME280;63121;51.458;-0.110;2023-04-01T23:04:48;101566.38;;;10.93;64.48
74615;BME280;63121;51.458;-0.110;2023-04-01T23:08:24;101564.63;;;10.68;64.90
74615;BME280;63121;51.458;-0.110;2023-04-01T23:13:03;101575.84;;;10.84;64.33
74615;BME280;63121;51.458;-0.110;2023-04-01T23:15:32;101589.59;;;10.81;64.75
74615;BME280;63121;51.458;-0.110;2023-04-01T23:18:01;101578.41;;;10.67;65.54
74615;BME280;63121;51.458;-0.110;2023-04-01T23:20:47;101582.69;;;10.68;65.47
74615;BME280;63121;51.458;-0.110;2023-04-01T23:23:23;101590.44;;;10.66;65.41
74615;BME280;63121;51.458;-0.110;2023-04-01T23:28:40;101585.31;;;10.85;64.93
74615;BME280;63121;51.458;-0.110;2023-04-01T23:31:26;101605.94;;;10.66;65.29
74615;BME280;63121;51.458;-0.110;2023-04-01T23:33:57;101600.81;;;10.83;65.22
74615;BME280;63121;51.458;-0.110;2023-04-01T23:36:24;101597.34;;;10.73;64.86
74615;BME280;63121;51.458;-0.110;2023-04-01T23:38:50;101611.97;;;10.68;65.45
74615;BME280;63121;51.458;-0.110;2023-04-01T23:41:22;101612.88;;;10.80;65.58
74615;BME280;63121;51.458;-0.110;2023-04-01T23:43:57;101617.88;;;10.36;67.15
74615;BME280;63121;51.458;-0.110;2023-04-01T23:46:24;101630.69;;;10.24;67.98